Sausalito, CA (94965)

7:12 PM PDT on July 21, 2017 (GMT -0700)
North Sausalito (Spring St) | | Change Station

Elev 158 ft 37.86 °N, 122.50 °W | Updated 10 seconds ago

Clear
Clear
67.5 °F
Feels Like 67.5 °F
N
8.1
Wind Variable Wind from South
Gusts 12.3 mph

Today
High -- | Low -- °F
--% Chance of Precip.
Yesterday
High -- | Low -- °F
Precip. -- in
Pressure 29.96 in
Visibility 10.0 miles
Clouds Few 1000 ft
Few 18000 ft
Dew Point 55 °F
Humidity 65%
Rainfall 0.00 in
Snow Depth Not available.
6:04 AM 8:27 PM
Waning Crescent, 3% visible
METAR KSFO 220156Z 27014G23KT 10SM FEW010 FEW180 17/11 A2995 RMK AO2 PK WND 26027/0057 SLP143 T01720106
Pressure 29.96 in
Visibility 10.0 miles
Clouds Few 1000 ft
Few 18000 ft
Dew Point 55 °F
Humidity 65%
Rainfall 0.00 in
Snow Depth Not available.
6:04 AM 8:27 PM
Waning Crescent, 3% visible
METAR KSFO 220156Z 27014G23KT 10SM FEW010 FEW180 17/11 A2995 RMK AO2 PK WND 26027/0057 SLP143 T01720106

Get Severe Weather Alerts

Thanks for signing up!

Be on the lookout for a verification email in your inbox.

You'll start receiving the daily forecast at 6 AM.

×

10-Day Weather Forecast

Almanac

Astronomy

Jul. 21, 2017 Rise Set
Actual Time
Civil Twilight
Nautical Twilight
Astronomical Twilight
Moon
Length of Visible Light
Length of Day
Tomorrow will be .
, % of the Moon is Illuminated

Today's Extremes

State Highs State Lows

Community

WunderPhotos

Category 6

Welcome to Category 6. This is the collective home for Weather Underground's featured writeups by Dr. Jeff Masters (right), Bob Henson (left), Chris Burt, and other regular contributors.

Nearby

Air Quality

  Air Quality AQ Index Pollutant
Not available.

Snow Depth

Station Depth Elevation

Earthquake Activity

City Distance Mag. Time & Date
Minimum magnitude displayed is 2.5.

Coastal Water Temperatures

Place Temperature

Stations

Nearby Weather Stations

Station Location Temp. Windchill Dew Point Humidity Wind Precip. Elev Updated Type
                   

Watches & Warnings

There are currently no watches in effect.